Time;durP1;ratioP1;P1;durP2;ratioP2;P2;SDS_P1;SDS_P2;PMS_P1;PMS_P2;Temp;Humidity;BMP_temperature;BMP_pressure;BME280_temperature;BME280_humidity;BME280_pressure;Samples;Min_cycle;Max_cycle;Signal;HPM_P1;HPM_P2
2021/12/29 00:00:24;;;;;;;9.75;8.82;;;;;;;14.11;73.62;100690.87;144992;604;6002;-88
2021/12/29 00:02:52;;;;;;;9.68;8.68;;;;;;;14.17;73.02;100692.69;144992;773;6002;-87
2021/12/29 00:06:04;;;;;;;10.73;8.85;;;;;;;14.21;73.16;100696.25;144992;629;6002;-89
2021/12/29 00:08:36;;;;;;;10.27;8.65;;;;;;;14.24;73.20;100698.91;144992;587;6002;-88
2021/12/29 00:11:07;;;;;;;9.85;8.75;;;;;;;14.25;72.98;100698.94;144992;591;6002;-89
2021/12/29 00:13:34;;;;;;;9.98;8.98;;;;;;;14.31;72.71;100696.38;144992;591;6002;-88
2021/12/29 00:16:03;;;;;;;10.27;9.23;;;;;;;14.36;72.67;100693.81;144992;565;6002;-89
2021/12/29 00:18:44;;;;;;;10.48;9.05;;;;;;;14.42;72.68;100703.50;144992;688;6002;-88
2021/12/29 00:21:59;;;;;;;9.93;8.88;;;;;;;14.47;72.15;100696.59;144992;564;6002;-90
2021/12/29 00:24:26;;;;;;;10.88;9.57;;;;;;;14.40;72.72;100694.78;144992;642;6002;-89
2021/12/29 00:27:08;;;;;;;11.68;10.48;;;;;;;14.31;73.14;100696.38;144992;577;6002;-88
2021/12/29 00:29:45;;;;;;;12.55;10.25;;;;;;;14.20;73.45;100686.66;144992;783;6002;-88
2021/12/29 00:32:34;;;;;;;13.93;10.80;;;;;;;14.29;72.91;100694.63;144992;585;6002;-89
2021/12/29 00:35:29;;;;;;;11.82;9.40;;;;;;;13.91;75.18;100697.53;144992;571;6004;-89
2021/12/29 00:38:12;;;;;;;;;;;;;;;;;;;;;
2021/12/29 00:40:45;;;;;;;14.20;11.45;;;;;;;13.94;74.36;100692.34;144992;568;6004;-90
2021/12/29 00:43:17;;;;;;;12.98;10.95;;;;;;;14.00;73.86;100688.94;144992;609;6004;-91
2021/12/29 00:45:44;;;;;;;12.25;11.00;;;;;;;13.84;74.75;100695.66;144992;562;6004;-88
2021/12/29 00:48:13;;;;;;;13.13;11.25;;;;;;;13.93;74.39;100698.41;144992;611;6004;-86
2021/12/29 00:51:13;;;;;;;12.55;10.65;;;;;;;13.91;74.06;100692.31;144992;628;6004;-88
2021/12/29 00:54:07;;;;;;;13.90;10.13;;;;;;;13.67;75.91;100678.00;144992;574;6004;-91
2021/12/29 00:57:02;;;;;;;14.10;11.27;;;;;;;13.70;75.15;100688.50;144992;565;6004;-88
2021/12/29 01:00:13;;;;;;;13.93;10.77;;;;;;;13.92;74.23;100689.72;144992;659;6004;-89
2021/12/29 01:02:44;;;;;;;12.98;10.52;;;;;;;13.89;74.37;100694.03;144992;590;6002;-89
2021/12/29 01:05:17;;;;;;;13.20;11.50;;;;;;;13.97;74.07;100690.66;144992;671;6002;-88
2021/12/29 01:08:02;;;;;;;14.05;11.50;;;;;;;13.79;74.85;100693.88;144992;717;6002;-91
2021/12/29 01:10:31;;;;;;;13.25;11.07;;;;;;;13.68;74.97;100686.72;144992;636;6002;-89
2021/12/29 01:13:01;;;;;;;15.25;11.98;;;;;;;13.83;74.52;100681.75;144992;621;6002;-87
2021/12/29 01:15:36;;;;;;;15.45;12.27;;;;;;;13.80;74.47;100676.47;144992;576;6002;-90
2021/12/29 01:18:11;;;;;;;17.05;12.50;;;;;;;13.92;74.16;100687.13;144992;653;6002;-89
2021/12/29 01:20:39;;;;;;;16.90;13.48;;;;;;;14.01;73.45;100681.16;144992;571;6002;-90
2021/12/29 01:23:06;;;;;;;17.95;13.43;;;;;;;14.04;73.36;100685.53;144992;572;6002;-90
2021/12/29 01:25:33;;;;;;;17.55;13.20;;;;;;;14.10;72.98;100681.28;144992;575;6002;-89
2021/12/29 01:28:00;;;;;;;18.55;13.43;;;;;;;14.15;73.10;100671.78;144992;585;6002;-90
2021/12/29 01:30:27;;;;;;;16.30;12.35;;;;;;;14.11;73.26;100674.31;144992;705;6002;-92
2021/12/29 01:32:53;;;;;;;15.45;11.80;;;;;;;14.10;73.33;100665.62;144992;630;6002;-87
2021/12/29 01:35:25;;;;;;;12.52;10.10;;;;;;;14.05;73.59;100669.03;144992;653;6002;-88
2021/12/29 01:37:52;;;;;;;12.70;10.30;;;;;;;14.00;73.52;100663.75;144992;564;6002;-90
2021/12/29 01:40:21;;;;;;;13.88;10.93;;;;;;;14.09;72.78;100663.87;144991;564;6002;-90
2021/12/29 01:42:47;;;;;;;14.43;11.57;;;;;;;14.15;73.13;100655.25;144992;564;6002;-89
2021/12/29 01:45:14;;;;;;;12.25;10.23;;;;;;;14.19;72.81;100650.94;144992;726;6002;-91
2021/12/29 01:47:43;;;;;;;12.25;9.52;;;;;;;14.07;73.32;100654.28;144992;694;6002;-91
2021/12/29 01:50:11;;;;;;;10.90;9.00;;;;;;;14.11;72.80;100656.03;144992;606;6002;-88
2021/12/29 01:52:39;;;;;;;12.07;9.45;;;;;;;14.13;73.08;100652.62;144992;832;6002;-89
2021/12/29 01:55:08;;;;;;;12.05;9.60;;;;;;;14.16;72.92;100641.34;144992;569;6002;-92
2021/12/29 01:57:35;;;;;;;12.45;9.70;;;;;;;14.20;72.05;100650.97;144992;718;6002;-89
2021/12/29 02:00:05;;;;;;;11.68;9.63;;;;;;;14.19;72.65;100648.34;144993;633;6002;-88
2021/12/29 02:02:32;;;;;;;14.02;11.20;;;;;;;14.16;72.55;100646.56;144993;710;6002;-90
2021/12/29 02:04:59;;;;;;;14.70;11.93;;;;;;;14.05;72.68;100653.38;144993;601;6002;-87
2021/12/29 02:07:26;;;;;;;15.48;12.60;;;;;;;14.02;72.75;100654.19;144992;784;6002;-89
2021/12/29 02:09:52;;;;;;;17.33;13.57;;;;;;;14.04;72.79;100655.09;144993;574;6002;-88
2021/12/29 02:12:20;;;;;;;18.90;13.88;;;;;;;14.08;72.67;100649.06;144993;597;6002;-89
2021/12/29 02:14:47;;;;;;;16.25;12.98;;;;;;;14.13;72.88;100649.12;144993;591;6002;-88
2021/12/29 02:17:13;;;;;;;18.58;13.90;;;;;;;14.16;72.66;100651.78;144993;584;6002;-89
2021/12/29 02:19:46;;;;;;;16.52;13.15;;;;;;;14.18;72.49;100662.25;144993;712;6002;-89
2021/12/29 02:22:32;;;;;;;20.90;14.77;;;;;;;13.92;73.35;100660.16;144993;620;6002;-88
2021/12/29 02:25:34;;;;;;;19.80;15.30;;;;;;;13.87;73.99;100662.69;144993;563;6002;-89
2021/12/29 02:28:21;;;;;;;;;;;;;;;;;;;;;
2021/12/29 02:30:55;;;;;;;22.85;15.73;;;;;;;13.93;73.47;100660.16;144992;705;6000;-89
2021/12/29 02:33:23;;;;;;;23.08;15.23;;;;;;;14.02;72.98;100661.16;144992;729;6000;-88
2021/12/29 02:35:50;;;;;;;22.27;15.63;;;;;;;13.99;72.97;100645.47;144992;724;6000;-88
2021/12/29 02:38:22;;;;;;;21.83;14.75;;;;;;;13.98;72.96;100655.00;144992;627;6000;-89
2021/12/29 02:40:53;;;;;;;22.33;15.07;;;;;;;13.97;72.84;100648.91;144992;614;6000;-90
2021/12/29 02:43:23;;;;;;;22.52;14.95;;;;;;;13.90;73.27;100649.69;144992;639;6000;-89
2021/12/29 02:45:58;;;;;;;22.27;14.38;;;;;;;13.97;73.10;100643.69;144993;759;6000;-89
2021/12/29 02:48:37;;;;;;;23.33;14.60;;;;;;;14.03;72.90;100647.22;144993;599;6002;-89
2021/12/29 02:51:07;;;;;;;22.30;13.43;;;;;;;14.05;72.81;100635.97;144993;589;6002;-89
2021/12/29 02:53:37;;;;;;;22.65;14.07;;;;;;;14.08;72.77;100642.97;144993;631;6002;-91
2021/12/29 02:56:05;;;;;;;22.48;14.02;;;;;;;14.09;72.49;100634.28;144993;890;6002;-89
2021/12/29 02:58:32;;;;;;;18.73;12.77;;;;;;;13.85;73.80;100637.41;144993;654;6002;-89
2021/12/29 03:01:03;;;;;;;18.52;12.48;;;;;;;13.78;73.79;100633.84;144993;780;6002;-88
2021/12/29 03:03:33;;;;;;;14.27;9.90;;;;;;;13.17;76.81;100641.47;144993;570;6002;-88
2021/12/29 03:05:59;;;;;;;14.63;9.63;;;;;;;13.21;75.97;100638.94;144993;604;6002;-90
2021/12/29 03:08:26;;;;;;;12.13;8.18;;;;;;;13.14;76.03;100637.09;144993;631;6002;-88
2021/12/29 03:10:53;;;;;;;9.57;7.93;;;;;;;12.77;78.63;100651.16;144993;646;6002;-88
2021/12/29 03:13:23;;;;;;;10.15;7.70;;;;;;;12.86;78.04;100651.34;144993;634;6002;-89
2021/12/29 03:15:50;;;;;;;9.90;7.07;;;;;;;12.77;78.26;100645.94;144993;709;6002;-89
2021/12/29 03:18:17;;;;;;;8.55;6.60;;;;;;;12.68;79.13;100649.25;144993;656;6002;-88
2021/12/29 03:20:45;;;;;;;8.52;6.75;;;;;;;12.55;79.80;100645.53;144993;564;6002;-88
2021/12/29 03:23:13;;;;;;;8.38;6.75;;;;;;;12.70;78.95;100644.94;144993;590;6002;-90
2021/12/29 03:25:41;;;;;;;7.62;6.75;;;;;;;12.85;77.58;100642.66;144993;763;6002;-88
2021/12/29 03:28:08;;;;;;;8.55;6.78;;;;;;;12.70;79.10;100653.63;144993;564;6002;-91
2021/12/29 03:30:41;;;;;;;8.73;7.00;;;;;;;12.51;80.19;100660.19;144993;629;6002;-88
2021/12/29 03:33:09;;;;;;;8.50;7.10;;;;;;;12.53;80.24;100652.41;144993;649;6002;-89
2021/12/29 03:35:49;;;;;;;8.45;7.30;;;;;;;12.50;80.47;100645.44;144993;589;6002;-89
2021/12/29 03:38:22;;;;;;;9.88;7.90;;;;;;;12.57;79.30;100643.81;144994;584;5002;-90
2021/12/29 03:40:51;;;;;;;9.98;8.13;;;;;;;12.84;77.00;100632.22;144994;620;5002;-92
2021/12/29 03:43:18;;;;;;;9.88;7.75;;;;;;;13.01;76.31;100624.69;144994;569;5002;-91
2021/12/29 03:45:50;;;;;;;10.00;7.68;;;;;;;13.17;76.02;100611.09;144994;620;5002;-89
2021/12/29 03:48:16;;;;;;;11.30;7.72;;;;;;;13.34;75.02;100608.78;144994;603;5002;-90
2021/12/29 03:50:46;;;;;;;10.23;7.30;;;;;;;13.50;74.72;100598.62;144993;566;5002;-89
2021/12/29 03:53:14;;;;;;;10.32;7.32;;;;;;;13.61;74.21;100597.91;144994;576;5002;-88
2021/12/29 03:55:42;;;;;;;9.57;7.18;;;;;;;13.67;74.20;100589.31;144994;645;5002;-87
2021/12/29 03:58:09;;;;;;;9.30;7.40;;;;;;;13.73;73.63;100597.25;144994;614;5002;-89
2021/12/29 04:00:36;;;;;;;9.73;7.32;;;;;;;13.80;73.74;100598.22;144994;564;5002;-90
2021/12/29 04:03:04;;;;;;;10.93;8.20;;;;;;;13.85;73.57;100591.31;144993;637;5002;-90
2021/12/29 04:05:32;;;;;;;12.18;8.40;;;;;;;13.92;73.58;100582.72;144994;585;5003;-89
2021/12/29 04:07:59;;;;;;;11.63;8.65;;;;;;;13.95;72.78;100571.44;144994;640;5002;-91
2021/12/29 04:10:27;;;;;;;11.70;9.25;;;;;;;13.99;73.05;100565.41;144994;614;5002;-88
2021/12/29 04:12:54;;;;;;;13.20;9.10;;;;;;;14.00;72.65;100566.28;144994;612;5002;-87
2021/12/29 04:15:33;;;;;;;16.25;10.32;;;;;;;14.02;73.13;100562.84;144994;630;5002;-88
2021/12/29 04:18:03;;;;;;;13.82;9.63;;;;;;;14.08;73.12;100562.94;144994;596;5002;-88
2021/12/29 04:23:19;;;;;;;14.30;10.02;;;;;;;14.09;72.28;100554.25;144994;588;5004;-88
2021/12/29 04:25:49;;;;;;;15.43;9.73;;;;;;;14.08;72.69;100554.25;144994;800;5004;-88
2021/12/29 04:28:20;;;;;;;12.93;9.32;;;;;;;14.08;72.52;100551.63;144994;640;5004;-90
2021/12/29 04:30:53;;;;;;;12.82;9.52;;;;;;;14.06;72.49;100553.31;144994;614;5004;-89
2021/12/29 04:33:21;;;;;;;14.60;10.25;;;;;;;14.07;72.78;100557.69;144994;598;5004;-91
2021/12/29 04:35:49;;;;;;;16.35;10.32;;;;;;;14.07;72.34;100561.16;144993;579;5004;-88
2021/12/29 04:38:16;;;;;;;14.93;10.88;;;;;;;14.08;72.96;100562.06;144994;589;5002;-90
2021/12/29 04:40:44;;;;;;;15.02;10.88;;;;;;;14.08;72.43;100562.94;144994;726;5002;-90
2021/12/29 04:43:10;;;;;;;18.73;11.85;;;;;;;14.07;72.53;100563.78;144994;591;5002;-90
2021/12/29 04:45:37;;;;;;;19.12;11.98;;;;;;;14.08;72.25;100562.06;144994;569;5002;-88
2021/12/29 04:48:12;;;;;;;18.50;11.40;;;;;;;14.08;72.85;100572.50;144994;626;5002;-90
2021/12/29 04:50:39;;;;;;;;;;;;;;;14.07;72.68;100574.22;144998;912;5002;-90
2021/12/29 04:53:08;;;;;;;18.67;11.90;;;;;;;14.07;72.44;100574.22;144998;670;5002;-86
2021/12/29 04:55:34;;;;;;;18.40;11.70;;;;;;;14.06;72.83;100579.41;144994;576;5002;-90
2021/12/29 04:58:02;;;;;;;17.35;11.88;;;;;;;14.05;72.89;100575.94;144993;569;5002;-89
2021/12/29 05:00:30;;;;;;;18.98;11.57;;;;;;;14.06;72.46;100579.41;144994;685;5002;-89
2021/12/29 05:02:58;;;;;;;14.55;10.57;;;;;;;14.05;72.93;100570.72;144994;598;5002;-89
2021/12/29 05:05:41;;;;;;;14.63;10.73;;;;;;;14.06;72.28;100574.19;144994;596;5002;-88
2021/12/29 05:08:29;;;;;;;14.20;9.52;;;;;;;14.07;73.06;100576.84;144994;626;5002;-88
2021/12/29 05:11:04;;;;;;;11.20;8.70;;;;;;;14.08;72.95;100580.34;144994;602;5002;-89
2021/12/29 05:13:33;;;;;;;14.02;9.23;;;;;;;14.07;72.82;100570.75;144994;584;5002;-90
2021/12/29 05:16:01;;;;;;;12.73;8.73;;;;;;;14.06;72.70;100576.81;144994;598;5002;-89
2021/12/29 05:18:30;;;;;;;12.93;9.85;;;;;;;14.06;72.53;100569.88;144994;620;5002;-88
2021/12/29 05:20:58;;;;;;;12.25;9.07;;;;;;;14.07;72.38;100566.37;144994;587;5002;-88
2021/12/29 05:23:25;;;;;;;12.55;8.77;;;;;;;14.07;72.89;100560.31;144994;563;5002;-88
2021/12/29 05:25:52;;;;;;;11.07;8.35;;;;;;;14.08;72.26;100565.53;144994;570;5002;-88
2021/12/29 05:28:20;;;;;;;11.90;9.00;;;;;;;14.10;72.41;100568.19;144994;650;5002;-91
2021/12/29 05:30:47;;;;;;;13.07;9.55;;;;;;;14.09;72.56;100558.59;144994;607;5002;-88
2021/12/29 05:33:15;;;;;;;12.57;9.55;;;;;;;14.08;72.41;100559.47;144994;694;5002;-88
2021/12/29 05:35:41;;;;;;;13.40;10.13;;;;;;;14.12;72.38;100569.06;144994;618;5002;-90
2021/12/29 05:38:11;;;;;;;11.95;9.68;;;;;;;14.12;72.15;100582.97;144993;569;5002;-90
2021/12/29 05:40:38;;;;;;;15.23;9.98;;;;;;;14.11;72.46;100586.47;144994;602;5002;-89
2021/12/29 05:43:06;;;;;;;16.62;11.30;;;;;;;14.10;72.18;100594.28;144994;564;5002;-89
2021/12/29 05:45:33;;;;;;;12.57;10.23;;;;;;;14.11;72.91;100594.31;144994;622;5002;-89
2021/12/29 05:47:59;;;;;;;14.25;10.45;;;;;;;14.13;72.83;100597.81;144993;764;5002;-90
2021/12/29 05:50:29;;;;;;;12.63;10.20;;;;;;;14.13;72.59;100597.81;144994;610;5002;-89
2021/12/29 05:52:57;;;;;;;13.30;10.43;;;;;;;14.13;72.78;100595.19;144994;626;5002;-90
2021/12/29 05:55:28;;;;;;;13.00;10.10;;;;;;;14.14;72.46;100596.06;144994;564;5002;-88
2021/12/29 05:57:57;;;;;;;14.98;11.48;;;;;;;14.13;72.25;100596.94;144994;612;5002;-89
2021/12/29 06:00:28;;;;;;;14.25;10.73;;;;;;;14.11;72.42;100615.19;144994;595;5002;-90
2021/12/29 06:03:32;;;;;;;13.13;10.23;;;;;;;14.10;72.54;100613.41;144994;599;5002;-88
2021/12/29 06:06:18;;;;;;;11.80;8.93;;;;;;;14.17;72.48;100609.16;144994;573;5002;-89
2021/12/29 06:08:45;;;;;;;11.77;9.15;;;;;;;14.13;72.93;100610.84;144994;565;5002;-90
2021/12/29 06:11:14;;;;;;;14.15;9.55;;;;;;;14.18;72.38;100623.09;144994;614;5002;-90
2021/12/29 06:13:47;;;;;;;13.02;8.70;;;;;;;14.20;72.34;100631.81;144994;570;5002;-89
2021/12/29 06:16:14;;;;;;;13.07;9.98;;;;;;;14.15;72.58;100637.84;144994;676;5002;-90
2021/12/29 06:18:41;;;;;;;13.77;9.98;;;;;;;14.20;72.53;100640.53;144994;615;5002;-88
2021/12/29 06:21:08;;;;;;;15.38;9.77;;;;;;;14.11;72.89;100646.50;144994;717;5002;-90
2021/12/29 06:23:34;;;;;;;14.50;10.20;;;;;;;14.10;73.11;100647.34;144994;729;5002;-88
2021/12/29 06:26:01;;;;;;;14.20;10.07;;;;;;;14.14;72.46;100646.56;144994;579;5002;-88
2021/12/29 06:28:27;;;;;;;16.10;11.40;;;;;;;14.19;72.42;100638.78;144993;564;5002;-89
2021/12/29 06:30:54;;;;;;;17.37;12.57;;;;;;;14.21;72.86;100644.91;144994;606;5002;-90
2021/12/29 06:33:20;;;;;;;15.52;11.93;;;;;;;14.20;72.86;100650.09;144994;565;5002;-89
2021/12/29 06:35:47;;;;;;;17.95;11.90;;;;;;;14.19;72.70;100656.16;144994;575;5002;-90
2021/12/29 06:38:13;;;;;;;16.58;11.68;;;;;;;14.02;73.32;100659.41;144994;693;5002;-89
2021/12/29 06:40:40;;;;;;;16.92;12.13;;;;;;;14.09;73.16;100657.78;144994;593;5002;-89
2021/12/29 06:43:06;;;;;;;14.68;11.60;;;;;;;14.13;73.16;100654.37;144994;653;5002;-89
2021/12/29 06:45:33;;;;;;;16.37;11.93;;;;;;;14.17;73.19;100648.31;144994;586;5002;-89
2021/12/29 06:47:59;;;;;;;17.42;12.43;;;;;;;14.19;72.63;100649.22;144994;625;5002;-90
2021/12/29 06:50:26;;;;;;;16.50;11.75;;;;;;;14.24;72.79;100651.91;144994;564;5002;-89
2021/12/29 06:52:53;;;;;;;14.10;10.30;;;;;;;14.28;72.85;100648.47;144994;579;5002;-90
2021/12/29 06:55:19;;;;;;;14.25;10.25;;;;;;;14.31;72.53;100653.72;144994;564;5002;-90
2021/12/29 06:57:45;;;;;;;12.88;9.55;;;;;;;14.33;72.92;100652.00;144994;673;5002;-89
2021/12/29 07:00:14;;;;;;;12.43;8.77;;;;;;;14.13;74.63;100646.53;144994;758;5002;-90
2021/12/29 07:02:43;;;;;;;11.18;9.10;;;;;;;14.23;73.76;100647.53;144994;631;5002;-89
2021/12/29 07:05:10;;;;;;;11.93;9.02;;;;;;;14.15;73.65;100650.03;144994;726;5002;-89
2021/12/29 07:07:36;;;;;;;11.45;8.85;;;;;;;14.11;73.78;100662.16;144994;584;5002;-89
2021/12/29 07:10:26;;;;;;;11.15;9.07;;;;;;;14.07;74.08;100651.66;144994;563;5002;-85
2021/12/29 07:12:55;;;;;;;10.60;9.15;;;;;;;14.12;74.15;100652.59;144993;661;5002;-87
2021/12/29 07:15:22;;;;;;;13.48;10.10;;;;;;;14.25;74.08;100664.09;144993;565;5002;-87
2021/12/29 07:17:51;;;;;;;13.10;10.48;;;;;;;14.33;73.87;100658.13;144994;593;5002;-90
2021/12/29 07:20:17;;;;;;;14.43;11.40;;;;;;;14.34;73.84;100659.00;144993;572;5002;-89
2021/12/29 07:22:44;;;;;;;17.08;12.27;;;;;;;14.37;73.46;100656.41;144994;626;5002;-91
2021/12/29 07:25:15;;;;;;;15.57;11.25;;;;;;;14.42;73.63;100651.25;144994;593;5002;-89
2021/12/29 07:27:41;;;;;;;15.32;11.23;;;;;;;14.49;73.64;100658.31;144994;636;5002;-90
2021/12/29 07:30:09;;;;;;;14.18;10.80;;;;;;;14.54;73.28;100661.88;144994;626;5002;-91
2021/12/29 07:32:35;;;;;;;11.50;8.50;;;;;;;14.34;73.92;100659.00;144994;590;5002;-91
2021/12/29 07:35:03;;;;;;;10.52;8.13;;;;;;;14.30;74.09;100657.19;144994;579;5002;-88
2021/12/29 07:37:30;;;;;;;12.37;7.72;;;;;;;14.38;73.82;100655.59;144994;581;5002;-89
2021/12/29 07:39:59;;;;;;;9.95;7.60;;;;;;;14.44;73.90;100652.16;144994;626;5002;-89
2021/12/29 07:42:26;;;;;;;9.63;7.68;;;;;;;14.47;73.36;100655.66;144994;599;5002;-90
2021/12/29 07:44:53;;;;;;;12.70;7.72;;;;;;;14.51;73.26;100647.03;144994;596;5002;-90
2021/12/29 07:47:19;;;;;;;9.63;7.62;;;;;;;14.55;73.13;100642.72;144994;621;5002;-88
2021/12/29 07:49:48;;;;;;;10.60;8.52;;;;;;;14.58;73.59;100636.66;144994;590;5002;-88
2021/12/29 07:52:35;;;;;;;11.18;8.85;;;;;;;14.63;73.26;100635.00;144994;563;5002;-85
2021/12/29 07:55:02;;;;;;;10.93;8.70;;;;;;;14.68;73.14;100633.31;144994;637;5002;-90
2021/12/29 07:57:28;;;;;;;11.82;8.00;;;;;;;14.68;73.17;100630.69;144994;595;5002;-89
2021/12/29 07:59:55;;;;;;;9.13;6.95;;;;;;;14.68;73.41;100631.59;144994;566;5002;-89
2021/12/29 08:02:27;;;;;;;8.85;7.10;;;;;;;14.68;73.06;100625.47;144994;655;5002;-87
2021/12/29 08:04:55;;;;;;;9.02;7.05;;;;;;;14.70;73.21;100621.16;144994;616;5002;-88
2021/12/29 08:07:25;;;;;;;8.52;7.10;;;;;;;14.70;73.61;100621.16;144994;567;5002;-88
2021/12/29 08:09:52;;;;;;;8.23;6.85;;;;;;;14.65;73.18;100613.28;144994;600;4565;-86
2021/12/29 08:12:19;;;;;;;8.63;7.43;;;;;;;14.68;73.74;100609.81;144994;632;4569;-88
2021/12/29 08:14:47;;;;;;;10.55;7.60;;;;;;;14.61;73.65;100605.38;144994;571;4572;-88
2021/12/29 08:17:14;;;;;;;11.02;7.18;;;;;;;14.52;74.23;100612.22;144993;563;6002;-89
2021/12/29 08:19:41;;;;;;;9.98;7.28;;;;;;;14.60;74.22;100614.06;144992;603;6002;-88
2021/12/29 08:22:07;;;;;;;11.57;8.48;;;;;;;14.68;73.46;100620.25;144992;579;6002;-89
2021/12/29 08:24:36;;;;;;;13.85;9.60;;;;;;;14.75;73.38;100618.62;144992;612;6002;-89
2021/12/29 08:27:03;;;;;;;13.30;9.55;;;;;;;14.71;74.20;100617.69;144992;567;6002;-86
2021/12/29 08:29:29;;;;;;;12.32;9.63;;;;;;;14.78;73.87;100616.91;144992;611;6002;-88
2021/12/29 08:31:57;;;;;;;15.18;10.07;;;;;;;14.83;73.19;100609.97;144992;619;6002;-86
2021/12/29 08:34:24;;;;;;;18.33;11.23;;;;;;;14.84;73.08;100614.34;144992;601;6002;-89
2021/12/29 08:36:54;;;;;;;15.77;10.85;;;;;;;14.83;73.04;100607.38;144992;702;6002;-88
2021/12/29 08:39:22;;;;;;;13.55;9.68;;;;;;;14.80;73.52;100607.34;144992;577;6002;-87
2021/12/29 08:41:49;;;;;;;14.15;10.38;;;;;;;14.84;73.02;100611.75;144992;576;6002;-87
2021/12/29 08:44:17;;;;;;;16.02;11.68;;;;;;;14.86;73.36;100604.78;144992;623;6002;-87
2021/12/29 08:46:46;;;;;;;15.85;11.70;;;;;;;14.89;73.08;100606.56;144992;629;6002;-87
2021/12/29 08:49:13;;;;;;;14.85;11.00;;;;;;;14.94;73.26;100609.22;144991;615;6002;-87
2021/12/29 08:51:40;;;;;;;17.05;12.95;;;;;;;14.97;73.13;100617.06;144992;653;6002;-87
2021/12/29 08:54:10;;;;;;;16.23;12.60;;;;;;;15.00;72.63;100610.16;144992;590;6002;-87
2021/12/29 08:56:37;;;;;;;17.08;12.30;;;;;;;15.04;73.01;100611.06;144992;588;6002;-89
2021/12/29 08:59:04;;;;;;;17.20;12.73;;;;;;;15.07;73.06;100605.88;144992;620;6002;-88
2021/12/29 09:01:40;;;;;;;16.10;12.35;;;;;;;15.09;72.46;100606.75;144992;576;6002;-90
2021/12/29 09:04:07;;;;;;;14.77;11.20;;;;;;;15.12;73.06;100609.38;144992;569;6002;-88
2021/12/29 09:06:34;;;;;;;18.27;13.35;;;;;;;15.14;72.50;100597.19;144992;685;6002;-87
2021/12/29 09:09:01;;;;;;;17.87;12.30;;;;;;;15.18;72.90;100592.91;144991;626;6002;-89
2021/12/29 09:11:30;;;;;;;14.02;11.48;;;;;;;15.23;72.27;100596.41;144992;579;6002;-88
2021/12/29 09:13:57;;;;;;;16.75;11.98;;;;;;;15.29;72.42;100585.13;144992;649;6002;-90
2021/12/29 09:16:24;;;;;;;15.40;11.32;;;;;;;15.32;72.85;100580.81;144992;564;6002;-88
2021/12/29 09:18:50;;;;;;;15.68;11.20;;;;;;;15.36;72.41;100576.47;144992;588;6002;-88
2021/12/29 09:21:18;;;;;;;18.40;11.90;;;;;;;15.38;72.74;100575.63;144992;563;6002;-86
2021/12/29 09:23:45;;;;;;;16.73;12.02;;;;;;;15.39;72.11;100577.38;144992;610;6002;-85
2021/12/29 09:26:15;;;;;;;15.75;11.80;;;;;;;15.38;72.43;100569.50;144992;571;6002;-85
2021/12/29 09:28:44;;;;;;;16.00;12.35;;;;;;;15.39;72.04;100573.88;144992;588;6002;-87
2021/12/29 09:31:14;;;;;;;19.23;12.57;;;;;;;15.30;72.61;100569.44;144992;619;6002;-83
2021/12/29 09:33:44;;;;;;;17.67;12.25;;;;;;;15.30;72.44;100558.13;144992;612;6002;-85
2021/12/29 09:36:10;;;;;;;17.50;11.35;;;;;;;15.13;72.78;100558.87;144992;621;6002;-87
2021/12/29 09:38:57;;;;;;;16.58;12.30;;;;;;;14.96;73.62;100555.22;144992;590;6002;-85
2021/12/29 09:41:29;;;;;;;19.05;13.07;;;;;;;15.08;73.69;100557.97;144992;615;6002;-87
2021/12/29 09:43:55;;;;;;;18.83;13.35;;;;;;;15.11;73.56;100547.53;144992;590;6002;-88
2021/12/29 09:46:23;;;;;;;19.10;14.38;;;;;;;15.13;73.50;100537.94;144992;602;6002;-85
2021/12/29 09:48:51;;;;;;;19.48;13.80;;;;;;;15.16;72.82;100522.28;144992;587;6002;-86
2021/12/29 09:51:19;;;;;;;21.77;13.95;;;;;;;15.15;73.20;100524.87;144992;569;6002;-85
2021/12/29 09:53:46;;;;;;;21.30;15.07;;;;;;;15.19;73.01;100522.31;144992;569;6002;-86
2021/12/29 09:56:13;;;;;;;20.60;14.63;;;;;;;15.19;72.65;100513.56;144992;607;6002;-92
2021/12/29 09:58:40;;;;;;;21.62;15.05;;;;;;;15.18;72.81;100517.94;144992;577;6002;-85
2021/12/29 10:01:10;;;;;;;21.00;15.55;;;;;;;14.97;73.78;100510.81;144992;619;6002;-87
2021/12/29 10:03:38;;;;;;;21.60;15.68;;;;;;;15.09;73.50;100512.63;144992;707;6002;-84
2021/12/29 10:06:08;;;;;;;21.70;14.82;;;;;;;15.14;73.06;100518.75;144992;571;6002;-85
2021/12/29 10:08:47;;;;;;;21.70;14.43;;;;;;;15.13;72.96;100522.25;144992;574;6002;-87
2021/12/29 10:11:24;;;;;;;19.67;14.00;;;;;;;15.16;73.00;100522.28;144992;601;6002;-89
2021/12/29 10:13:51;;;;;;;19.35;13.07;;;;;;;15.13;73.52;100510.91;144992;590;6002;-87
2021/12/29 10:16:25;;;;;;;20.48;12.05;;;;;;;15.07;73.61;100509.13;144991;575;6002;-88
2021/12/29 10:19:04;;;;;;;17.70;11.32;;;;;;;15.02;73.15;100497.78;144992;599;6002;-88
2021/12/29 10:21:31;;;;;;;14.57;10.30;;;;;;;15.18;73.71;100497.03;144992;566;6002;-86
2021/12/29 10:23:59;;;;;;;13.35;10.13;;;;;;;15.21;73.38;100489.19;144992;603;6002;-84
2021/12/29 10:26:28;;;;;;;13.80;9.88;;;;;;;15.34;73.22;100486.69;144992;630;6002;-87
2021/12/29 10:29:02;;;;;;;11.45;8.93;;;;;;;15.47;73.96;100496.34;144992;576;6002;-89
2021/12/29 10:31:40;;;;;;;13.05;8.90;;;;;;;15.64;72.93;100496.44;144992;573;6002;-86
2021/12/29 10:34:13;;;;;;;11.57;9.00;;;;;;;15.82;73.35;100495.69;144992;572;6002;-88
2021/12/29 10:36:56;;;;;;;13.32;9.05;;;;;;;15.97;72.52;100492.25;144992;589;6002;-87
2021/12/29 10:39:35;;;;;;;12.10;8.18;;;;;;;16.14;72.62;100494.94;144992;578;6002;-86
2021/12/29 10:42:06;;;;;;;15.60;9.23;;;;;;;16.15;71.70;100501.94;144992;599;6002;-86
2021/12/29 10:44:39;;;;;;;13.25;9.63;;;;;;;16.10;70.24;100485.34;144991;569;6002;-86
2021/12/29 10:47:21;;;;;;;18.62;11.88;;;;;;;15.95;71.46;100489.66;144992;591;6002;-88
2021/12/29 10:49:53;;;;;;;15.50;12.32;;;;;;;16.10;72.54;100485.34;144992;630;6002;-87
2021/12/29 10:52:34;;;;;;;16.50;12.50;;;;;;;16.17;71.36;100479.25;144992;587;6002;-89
2021/12/29 10:55:08;;;;;;;20.50;15.75;;;;;;;16.18;70.76;100473.12;144992;595;6002;-89
2021/12/29 10:57:36;;;;;;;15.33;12.70;;;;;;;16.44;72.11;100473.19;144992;573;6002;-91
2021/12/29 11:00:08;;;;;;;13.55;10.45;;;;;;;16.56;72.14;100474.97;144992;599;6002;-87
2021/12/29 11:02:35;;;;;;;15.82;10.45;;;;;;;16.70;72.04;100469.72;144992;572;6002;-88
2021/12/29 11:05:10;;;;;;;12.45;9.68;;;;;;;16.84;71.57;100472.34;144992;592;6002;-86
2021/12/29 11:07:38;;;;;;;10.68;8.90;;;;;;;16.94;71.60;100463.66;144992;669;6002;-88
2021/12/29 11:10:15;;;;;;;10.80;8.95;;;;;;;17.02;70.81;100461.91;144992;571;6002;-88
2021/12/29 11:13:09;;;;;;;14.38;8.43;;;;;;;17.11;71.41;100465.38;144992;587;6002;-90
2021/12/29 11:15:41;;;;;;;11.43;7.70;;;;;;;17.16;69.93;100459.25;144992;732;6004;-91
2021/12/29 11:18:11;;;;;;;9.85;6.55;;;;;;;17.19;70.53;100453.13;144992;600;6004;-88
2021/12/29 11:20:40;;;;;;;9.30;6.68;;;;;;;17.13;70.64;100455.75;144992;648;6004;-88
2021/12/29 11:23:21;;;;;;;7.65;6.18;;;;;;;16.93;66.79;100450.56;144992;591;6004;-89
2021/12/29 11:26:14;;;;;;;6.97;5.68;;;;;;;16.85;69.88;100453.13;144992;611;6004;-88
2021/12/29 11:28:42;;;;;;;7.57;4.93;;;;;;;16.61;67.60;100430.44;144992;564;6004;-91
2021/12/29 11:31:12;;;;;;;6.70;4.53;;;;;;;16.44;67.48;100441.75;144992;617;6004;-87
2021/12/29 11:33:39;;;;;;;6.85;4.47;;;;;;;16.66;70.77;100434.78;144992;600;6004;-88
2021/12/29 11:36:06;;;;;;;7.10;4.15;;;;;;;16.83;70.25;100423.41;144992;568;6004;-87
2021/12/29 11:38:34;;;;;;;8.07;3.90;;;;;;;16.87;69.57;100420.81;144992;612;6004;-93
2021/12/29 11:41:09;;;;;;;4.35;3.37;;;;;;;16.79;69.82;100416.44;144992;562;6004;-89
2021/12/29 11:43:51;;;;;;;6.12;4.10;;;;;;;16.75;70.07;100420.81;144992;588;6004;-91